sensor_id;sensor_type;location;lat;lon;timestamp;pressure;altitude;pressure_sealevel;temperature;humidity
49827;BME280;35715;51.570;6.036;2023-06-10T00:00:23;101269.81;;;23.20;48.26
49827;BME280;35715;51.570;6.036;2023-06-10T00:02:53;101279.47;;;23.20;48.51
49827;BME280;35715;51.570;6.036;2023-06-10T00:05:18;101281.97;;;23.14;48.43
49827;BME280;35715;51.570;6.036;2023-06-10T00:07:46;101276.69;;;23.14;48.47
49827;BME280;35715;51.570;6.036;2023-06-10T00:10:13;101281.00;;;23.12;48.73
49827;BME280;35715;51.570;6.036;2023-06-10T00:12:38;101282.63;;;23.07;48.32
49827;BME280;35715;51.570;6.036;2023-06-10T00:15:05;101273.97;;;23.09;48.46
49827;BME280;35715;51.570;6.036;2023-06-10T00:17:31;101274.72;;;23.07;48.91
49827;BME280;35715;51.570;6.036;2023-06-10T00:19:57;101275.53;;;23.04;48.60
49827;BME280;35715;51.570;6.036;2023-06-10T00:25:13;101286.75;;;22.95;49.27
49827;BME280;35715;51.570;6.036;2023-06-10T00:27:39;101277.94;;;22.95;49.69
49827;BME280;35715;51.570;6.036;2023-06-10T00:30:05;101279.66;;;22.93;49.54
49827;BME280;35715;51.570;6.036;2023-06-10T00:32:38;101283.91;;;22.88;50.07
49827;BME280;35715;51.570;6.036;2023-06-10T00:35:04;101276.88;;;22.85;49.42
49827;BME280;35715;51.570;6.036;2023-06-10T00:37:30;101276.63;;;22.76;49.27
49827;BME280;35715;51.570;6.036;2023-06-10T00:39:55;101289.84;;;22.77;49.87
49827;BME280;35715;51.570;6.036;2023-06-10T00:42:32;101287.09;;;22.73;50.27
49827;BME280;35715;51.570;6.036;2023-06-10T00:44:57;101283.47;;;22.69;50.84
49827;BME280;35715;51.570;6.036;2023-06-10T00:47:23;101286.88;;;22.65;50.39
49827;BME280;35715;51.570;6.036;2023-06-10T00:50:07;101289.38;;;22.60;50.60
49827;BME280;35715;51.570;6.036;2023-06-10T00:52:42;101294.50;;;22.54;51.85
49827;BME280;35715;51.570;6.036;2023-06-10T00:55:09;101292.66;;;22.50;51.34
49827;BME280;35715;51.570;6.036;2023-06-10T00:57:35;101297.91;;;22.50;51.76
49827;BME280;35715;51.570;6.036;2023-06-10T01:00:01;101297.00;;;22.49;51.61
49827;BME280;35715;51.570;6.036;2023-06-10T01:02:43;101306.59;;;22.47;50.99
49827;BME280;35715;51.570;6.036;2023-06-10T01:08:37;101300.19;;;22.38;51.96
49827;BME280;35715;51.570;6.036;2023-06-10T01:11:08;101304.53;;;22.36;51.76
49827;BME280;35715;51.570;6.036;2023-06-10T01:13:45;101302.69;;;22.33;51.69
49827;BME280;35715;51.570;6.036;2023-06-10T01:16:11;101309.59;;;22.29;52.16
49827;BME280;35715;51.570;6.036;2023-06-10T01:18:55;101299.84;;;22.25;53.26
49827;BME280;35715;51.570;6.036;2023-06-10T01:21:22;101306.00;;;22.26;53.76
49827;BME280;35715;51.570;6.036;2023-06-10T01:23:56;101310.19;;;22.19;54.34
49827;BME280;35715;51.570;6.036;2023-06-10T01:26:24;101306.59;;;22.15;54.11
49827;BME280;35715;51.570;6.036;2023-06-10T01:29:03;101302.09;;;22.11;54.17
49827;BME280;35715;51.570;6.036;2023-06-10T01:31:55;101308.06;;;22.06;54.45
49827;BME280;35715;51.570;6.036;2023-06-10T01:34:27;101308.84;;;22.02;54.66
49827;BME280;35715;51.570;6.036;2023-06-10T01:36:55;101310.47;;;21.98;55.21
49827;BME280;35715;51.570;6.036;2023-06-10T01:39:23;101308.53;;;21.91;55.39
49827;BME280;35715;51.570;6.036;2023-06-10T01:41:51;101304.03;;;21.87;56.01
49827;BME280;35715;51.570;6.036;2023-06-10T01:44:18;101314.50;;;21.85;56.48
49827;BME280;35715;51.570;6.036;2023-06-10T01:46:44;101302.16;;;21.83;56.51
49827;BME280;35715;51.570;6.036;2023-06-10T01:49:28;101309.03;;;21.77;56.35
49827;BME280;35715;51.570;6.036;2023-06-10T01:51:55;101307.16;;;21.73;56.44
49827;BME280;35715;51.570;6.036;2023-06-10T01:54:20;101308.84;;;21.71;56.71
49827;BME280;35715;51.570;6.036;2023-06-10T01:56:45;101302.59;;;21.68;56.63
49827;BME280;35715;51.570;6.036;2023-06-10T01:59:11;101310.44;;;21.66;56.42
49827;BME280;35715;51.570;6.036;2023-06-10T02:01:36;101313.06;;;21.66;57.44
49827;BME280;35715;51.570;6.036;2023-06-10T02:06:45;101311.09;;;21.59;58.00
49827;BME280;35715;51.570;6.036;2023-06-10T02:09:11;101314.56;;;21.58;57.82
49827;BME280;35715;51.570;6.036;2023-06-10T02:11:36;101312.75;;;21.55;58.04
49827;BME280;35715;51.570;6.036;2023-06-10T02:14:06;101315.28;;;21.52;57.98
49827;BME280;35715;51.570;6.036;2023-06-10T02:16:31;101319.53;;;21.49;57.89
49827;BME280;35715;51.570;6.036;2023-06-10T02:18:56;101314.19;;;21.45;57.97
49827;BME280;35715;51.570;6.036;2023-06-10T02:21:23;101309.66;;;21.41;58.21
49827;BME280;35715;51.570;6.036;2023-06-10T02:23:55;101313.91;;;21.36;59.06
49827;BME280;35715;51.570;6.036;2023-06-10T02:26:20;101317.31;;;21.34;59.01
49827;BME280;35715;51.570;6.036;2023-06-10T02:28:46;101322.41;;;21.29;58.68
49827;BME280;35715;51.570;6.036;2023-06-10T02:31:11;101319.69;;;21.26;59.15
49827;BME280;35715;51.570;6.036;2023-06-10T02:33:37;101321.41;;;21.25;58.89
49827;BME280;35715;51.570;6.036;2023-06-10T02:36:06;101319.66;;;21.24;58.87
49827;BME280;35715;51.570;6.036;2023-06-10T02:38:32;101319.50;;;21.20;59.37
49827;BME280;35715;51.570;6.036;2023-06-10T02:43:58;101313.00;;;21.08;60.27
49827;BME280;35715;51.570;6.036;2023-06-10T02:46:23;101318.22;;;21.07;60.34
49827;BME280;35715;51.570;6.036;2023-06-10T02:48:49;101317.19;;;21.02;60.96
49827;BME280;35715;51.570;6.036;2023-06-10T02:51:33;101321.41;;;20.98;61.08
49827;BME280;35715;51.570;6.036;2023-06-10T02:54:15;101315.09;;;20.91;61.67
49827;BME280;35715;51.570;6.036;2023-06-10T02:56:41;101320.28;;;20.90;61.23
49827;BME280;35715;51.570;6.036;2023-06-10T02:59:07;101326.38;;;20.89;61.39
49827;BME280;35715;51.570;6.036;2023-06-10T03:04:17;101329.66;;;20.82;61.65
49827;BME280;35715;51.570;6.036;2023-06-10T03:06:43;101334.75;;;20.79;61.51
49827;BME280;35715;51.570;6.036;2023-06-10T03:09:10;101325.03;;;20.74;61.08
49827;BME280;35715;51.570;6.036;2023-06-10T03:11:36;101329.31;;;20.72;61.53
49827;BME280;35715;51.570;6.036;2023-06-10T03:14:01;101330.16;;;20.71;61.23
49827;BME280;35715;51.570;6.036;2023-06-10T03:16:27;101332.69;;;20.68;61.49
49827;BME280;35715;51.570;6.036;2023-06-10T03:18:52;101330.84;;;20.66;62.05
49827;BME280;35715;51.570;6.036;2023-06-10T03:21:18;101329.00;;;20.65;62.28
49827;BME280;35715;51.570;6.036;2023-06-10T03:23:44;101331.59;;;20.63;62.45
49827;BME280;35715;51.570;6.036;2023-06-10T03:26:10;101330.59;;;20.60;62.26
49827;BME280;35715;51.570;6.036;2023-06-10T03:28:37;101331.28;;;20.54;62.43
49827;BME280;35715;51.570;6.036;2023-06-10T03:31:03;101332.97;;;20.52;62.44
49827;BME280;35715;51.570;6.036;2023-06-10T03:33:39;101331.09;;;20.49;62.41
49827;BME280;35715;51.570;6.036;2023-06-10T03:36:05;101337.19;;;20.48;62.29
49827;BME280;35715;51.570;6.036;2023-06-10T03:38:30;101340.63;;;20.46;62.12
49827;BME280;35715;51.570;6.036;2023-06-10T03:40:56;101344.00;;;20.43;61.93
49827;BME280;35715;51.570;6.036;2023-06-10T03:43:22;101345.63;;;20.39;62.13
49827;BME280;35715;51.570;6.036;2023-06-10T03:45:48;101345.41;;;20.33;62.57
49827;BME280;35715;51.570;6.036;2023-06-10T03:48:14;101350.56;;;20.30;62.35
49827;BME280;35715;51.570;6.036;2023-06-10T03:50:40;101358.16;;;20.24;62.27
49827;BME280;35715;51.570;6.036;2023-06-10T03:53:07;101357.22;;;20.22;62.63
49827;BME280;35715;51.570;6.036;2023-06-10T03:55:32;101359.03;;;20.23;62.83
49827;BME280;35715;51.570;6.036;2023-06-10T03:57:58;101356.25;;;20.18;63.29
49827;BME280;35715;51.570;6.036;2023-06-10T04:00:23;101359.63;;;20.16;63.05
49827;BME280;35715;51.570;6.036;2023-06-10T04:03:08;101360.28;;;20.10;63.03
49827;BME280;35715;51.570;6.036;2023-06-10T04:05:58;101360.06;;;20.04;62.82
49827;BME280;35715;51.570;6.036;2023-06-10T04:08:23;101363.44;;;20.01;62.47
49827;BME280;35715;51.570;6.036;2023-06-10T04:10:48;101358.31;;;20.03;62.55
49827;BME280;35715;51.570;6.036;2023-06-10T04:13:23;101362.69;;;20.04;63.01
49827;BME280;35715;51.570;6.036;2023-06-10T04:15:48;101360.13;;;20.06;62.39
49827;BME280;35715;51.570;6.036;2023-06-10T04:18:13;101364.53;;;20.07;61.98
49827;BME280;35715;51.570;6.036;2023-06-10T04:20:39;101370.47;;;20.02;62.10
49827;BME280;35715;51.570;6.036;2023-06-10T04:23:09;101365.13;;;19.99;62.70
49827;BME280;35715;51.570;6.036;2023-06-10T04:25:35;101367.91;;;20.04;62.39
49827;BME280;35715;51.570;6.036;2023-06-10T04:28:00;101374.78;;;20.00;62.72
49827;BME280;35715;51.570;6.036;2023-06-10T04:30:25;101373.94;;;20.01;63.26
49827;BME280;35715;51.570;6.036;2023-06-10T04:32:56;101372.16;;;20.00;63.22
49827;BME280;35715;51.570;6.036;2023-06-10T04:35:21;101374.84;;;20.02;63.48
49827;BME280;35715;51.570;6.036;2023-06-10T04:37:46;101375.78;;;20.04;63.13
49827;BME280;35715;51.570;6.036;2023-06-10T04:40:12;101373.28;;;20.07;63.04
49827;BME280;35715;51.570;6.036;2023-06-10T04:42:57;101376.97;;;20.12;63.07
49827;BME280;35715;51.570;6.036;2023-06-10T04:45:22;101376.28;;;20.18;62.88
49827;BME280;35715;51.570;6.036;2023-06-10T04:47:47;101368.47;;;20.19;62.60
49827;BME280;35715;51.570;6.036;2023-06-10T04:50:13;101372.84;;;20.19;62.97
49827;BME280;35715;51.570;6.036;2023-06-10T04:52:42;101374.81;;;20.25;62.14
49827;BME280;35715;51.570;6.036;2023-06-10T04:55:08;101375.56;;;20.22;62.33
49827;BME280;35715;51.570;6.036;2023-06-10T05:00:18;101374.75;;;20.23;62.22
49827;BME280;35715;51.570;6.036;2023-06-10T05:02:47;101373.00;;;20.24;63.11
49827;BME280;35715;51.570;6.036;2023-06-10T05:05:31;101374.75;;;20.23;62.92
49827;BME280;35715;51.570;6.036;2023-06-10T05:07:56;101372.94;;;20.22;62.73
49827;BME280;35715;51.570;6.036;2023-06-10T05:10:22;101376.72;;;20.29;62.33
49827;BME280;35715;51.570;6.036;2023-06-10T05:12:48;101379.31;;;20.29;62.76
49827;BME280;35715;51.570;6.036;2023-06-10T05:15:14;101377.63;;;20.31;62.91
49827;BME280;35715;51.570;6.036;2023-06-10T05:17:39;101384.84;;;20.36;63.33
49827;BME280;35715;51.570;6.036;2023-06-10T05:20:05;101378.81;;;20.39;62.54
49827;BME280;35715;51.570;6.036;2023-06-10T05:22:37;101386.88;;;20.45;62.82
49827;BME280;35715;51.570;6.036;2023-06-10T05:25:03;101385.22;;;20.47;62.19
49827;BME280;35715;51.570;6.036;2023-06-10T05:27:28;101382.50;;;20.44;62.78
49827;BME280;35715;51.570;6.036;2023-06-10T05:29:53;101388.63;;;20.45;62.56
49827;BME280;35715;51.570;6.036;2023-06-10T05:32:27;101384.31;;;20.47;62.65
49827;BME280;35715;51.570;6.036;2023-06-10T05:34:52;101380.69;;;20.43;61.53
49827;BME280;35715;51.570;6.036;2023-06-10T05:37:17;101384.31;;;20.47;61.46
49827;BME280;35715;51.570;6.036;2023-06-10T05:42:30;101384.47;;;20.51;61.82
49827;BME280;35715;51.570;6.036;2023-06-10T05:44:55;101381.91;;;20.53;61.60
49827;BME280;35715;51.570;6.036;2023-06-10T05:47:20;101384.72;;;20.58;61.14
49827;BME280;35715;51.570;6.036;2023-06-10T05:49:46;101392.94;;;20.67;62.22
49827;BME280;35715;51.570;6.036;2023-06-10T05:52:14;101395.72;;;20.71;61.08
49827;BME280;35715;51.570;6.036;2023-06-10T05:54:39;101386.28;;;20.77;61.82
49827;BME280;35715;51.570;6.036;2023-06-10T05:57:05;101395.31;;;20.85;60.95
49827;BME280;35715;51.570;6.036;2023-06-10T05:59:31;101391.09;;;20.90;60.06
49827;BME280;35715;51.570;6.036;2023-06-10T06:02:00;101387.06;;;21.00;59.64
49827;BME280;35715;51.570;6.036;2023-06-10T06:04:25;101390.53;;;20.99;58.56
49827;BME280;35715;51.570;6.036;2023-06-10T06:07:09;101390.94;;;21.11;57.33
49827;BME280;35715;51.570;6.036;2023-06-10T06:09:35;101381.63;;;21.48;58.33
49827;BME280;35715;51.570;6.036;2023-06-10T06:12:04;101382.94;;;21.90;55.27
49827;BME280;35715;51.570;6.036;2023-06-10T06:14:31;101391.25;;;22.34;54.35
49827;BME280;35715;51.570;6.036;2023-06-10T06:16:59;101390.53;;;22.72;53.92
49827;BME280;35715;51.570;6.036;2023-06-10T06:19:25;101389.66;;;23.06;52.87
49827;BME280;35715;51.570;6.036;2023-06-10T06:21:50;101385.16;;;23.37;51.42
49827;BME280;35715;51.570;6.036;2023-06-10T06:24:15;101379.69;;;23.66;50.55
49827;BME280;35715;51.570;6.036;2023-06-10T06:26:41;101374.06;;;23.88;50.38
49827;BME280;35715;51.570;6.036;2023-06-10T06:29:06;101387.16;;;24.26;49.61
49827;BME280;35715;51.570;6.036;2023-06-10T06:31:32;101386.75;;;24.52;48.46
49827;BME280;35715;51.570;6.036;2023-06-10T06:33:57;101390.03;;;24.85;48.50
49827;BME280;35715;51.570;6.036;2023-06-10T06:36:22;101394.09;;;25.18;48.14
49827;BME280;35715;51.570;6.036;2023-06-10T06:38:48;101394.53;;;25.42;47.04
49827;BME280;35715;51.570;6.036;2023-06-10T06:41:13;101391.31;;;25.62;45.31
49827;BME280;35715;51.570;6.036;2023-06-10T06:43:41;101390.53;;;25.72;45.34
49827;BME280;35715;51.570;6.036;2023-06-10T06:46:08;101400.63;;;25.99;45.54
49827;BME280;35715;51.570;6.036;2023-06-10T06:48:33;101399.84;;;26.07;43.61
49827;BME280;35715;51.570;6.036;2023-06-10T06:51:17;101398.34;;;26.26;43.91
49827;BME280;35715;51.570;6.036;2023-06-10T06:54:02;101396.44;;;26.95;42.14
49827;BME280;35715;51.570;6.036;2023-06-10T06:56:27;101401.38;;;27.61;41.92
49827;BME280;35715;51.570;6.036;2023-06-10T06:58:53;101397.09;;;27.89;40.58
49827;BME280;35715;51.570;6.036;2023-06-10T07:01:18;101397.94;;;27.80;39.98
49827;BME280;35715;51.570;6.036;2023-06-10T07:03:46;101405.16;;;28.02;39.98
49827;BME280;35715;51.570;6.036;2023-06-10T07:08:56;101399.94;;;28.25;38.13
49827;BME280;35715;51.570;6.036;2023-06-10T07:11:23;101404.34;;;28.24;38.42
49827;BME280;35715;51.570;6.036;2023-06-10T07:13:52;101401.75;;;28.43;37.98
49827;BME280;35715;51.570;6.036;2023-06-10T07:16:17;101415.16;;;28.75;38.41
49827;BME280;35715;51.570;6.036;2023-06-10T07:18:45;101403.66;;;29.06;37.26
49827;BME280;35715;51.570;6.036;2023-06-10T07:21:11;101409.84;;;29.32;37.30
49827;BME280;35715;51.570;6.036;2023-06-10T07:23:43;101415.19;;;29.51;35.88
49827;BME280;35715;51.570;6.036;2023-06-10T07:26:08;101417.75;;;29.93;36.03
49827;BME280;35715;51.570;6.036;2023-06-10T07:28:37;101412.50;;;29.62;35.89
49827;BME280;35715;51.570;6.036;2023-06-10T07:31:03;101414.31;;;29.23;36.62
49827;BME280;35715;51.570;6.036;2023-06-10T07:33:28;101414.31;;;29.26;36.98
49827;BME280;35715;51.570;6.036;2023-06-10T07:35:54;101413.44;;;29.28;36.94
49827;BME280;35715;51.570;6.036;2023-06-10T07:38:19;101409.84;;;29.42;36.65
49827;BME280;35715;51.570;6.036;2023-06-10T07:40:45;101413.38;;;29.61;36.40
49827;BME280;35715;51.570;6.036;2023-06-10T07:43:12;101403.56;;;29.70;35.52
49827;BME280;35715;51.570;6.036;2023-06-10T07:45:42;101410.59;;;29.99;35.82
49827;BME280;35715;51.570;6.036;2023-06-10T07:48:08;101412.34;;;30.08;34.69
49827;BME280;35715;51.570;6.036;2023-06-10T07:50:33;101412.38;;;30.00;34.80
49827;BME280;35715;51.570;6.036;2023-06-10T07:53:06;101415.94;;;30.01;34.62
49827;BME280;35715;51.570;6.036;2023-06-10T07:55:31;101421.16;;;30.25;34.51
49827;BME280;35715;51.570;6.036;2023-06-10T07:57:56;101416.63;;;30.46;34.81
49827;BME280;35715;51.570;6.036;2023-06-10T08:00:22;101412.09;;;30.65;34.27
49827;BME280;35715;51.570;6.036;2023-06-10T08:02:48;101422.69;;;30.74;33.69
49827;BME280;35715;51.570;6.036;2023-06-10T08:05:14;101418.91;;;31.08;33.95
49827;BME280;35715;51.570;6.036;2023-06-10T08:07:40;101414.19;;;31.38;33.76
49827;BME280;35715;51.570;6.036;2023-06-10T08:10:24;101420.31;;;31.47;33.25
49827;BME280;35715;51.570;6.036;2023-06-10T08:12:50;101412.56;;;31.23;32.80
49827;BME280;35715;51.570;6.036;2023-06-10T08:15:15;101410.75;;;31.23;33.08
49827;BME280;35715;51.570;6.036;2023-06-10T08:20:24;101411.31;;;31.62;33.36
49827;BME280;35715;51.570;6.036;2023-06-10T08:22:50;101408.47;;;31.76;32.26
49827;BME280;35715;51.570;6.036;2023-06-10T08:25:15;101404.72;;;31.93;32.84
49827;BME280;35715;51.570;6.036;2023-06-10T08:27:40;101406.28;;;32.14;31.80
49827;BME280;35715;51.570;6.036;2023-06-10T08:30:06;101412.16;;;32.39;31.88
49827;BME280;35715;51.570;6.036;2023-06-10T08:32:34;101416.72;;;32.92;32.01
49827;BME280;35715;51.570;6.036;2023-06-10T08:34:59;101407.81;;;32.93;30.70
49827;BME280;35715;51.570;6.036;2023-06-10T08:37:24;101405.97;;;32.98;30.74
49827;BME280;35715;51.570;6.036;2023-06-10T08:39:50;101413.13;;;32.94;31.08
49827;BME280;35715;51.570;6.036;2023-06-10T08:42:45;101406.34;;;33.28;29.63
49827;BME280;35715;51.570;6.036;2023-06-10T08:45:17;101411.38;;;33.45;30.45
49827;BME280;35715;51.570;6.036;2023-06-10T08:47:45;101407.19;;;33.31;30.91
49827;BME280;35715;51.570;6.036;2023-06-10T08:50:11;101402.97;;;33.66;31.12
49827;BME280;35715;51.570;6.036;2023-06-10T08:52:43;101411.69;;;34.20;31.15
49827;BME280;35715;51.570;6.036;2023-06-10T08:55:32;101408.25;;;34.15;29.64
49827;BME280;35715;51.570;6.036;2023-06-10T08:58:17;101415.19;;;34.26;30.96
49827;BME280;35715;51.570;6.036;2023-06-10T09:00:44;101421.44;;;34.25;29.46
49827;BME280;35715;51.570;6.036;2023-06-10T09:03:28;101415.28;;;34.19;29.79
49827;BME280;35715;51.570;6.036;2023-06-10T09:05:55;101423.41;;;34.14;29.79
49827;BME280;35715;51.570;6.036;2023-06-10T09:08:22;101419.19;;;34.46;30.43
49827;BME280;35715;51.570;6.036;2023-06-10T09:10:47;101410.34;;;34.81;29.50
49827;BME280;35715;51.570;6.036;2023-06-10T09:13:19;101414.81;;;34.82;28.17
49827;BME280;35715;51.570;6.036;2023-06-10T09:15:44;101410.88;;;34.96;27.94
49827;BME280;35715;51.570;6.036;2023-06-10T09:18:11;101410.81;;;34.97;28.22
49827;BME280;35715;51.570;6.036;2023-06-10T09:20:39;101410.50;;;35.11;28.06
49827;BME280;35715;51.570;6.036;2023-06-10T09:23:08;101411.13;;;35.21;27.62
49827;BME280;35715;51.570;6.036;2023-06-10T09:25:38;101399.94;;;35.40;27.73
49827;BME280;35715;51.570;6.036;2023-06-10T09:28:04;101405.81;;;35.54;28.54
49827;BME280;35715;51.570;6.036;2023-06-10T09:30:32;101394.75;;;35.65;27.40
49827;BME280;35715;51.570;6.036;2023-06-10T09:33:24;101393.25;;;35.54;26.45
49827;BME280;35715;51.570;6.036;2023-06-10T09:35:51;101393.28;;;35.53;26.35
49827;BME280;35715;51.570;6.036;2023-06-10T09:38:21;101400.69;;;35.45;27.40
49827;BME280;35715;51.570;6.036;2023-06-10T09:40:54;101394.34;;;35.47;27.62
49827;BME280;35715;51.570;6.036;2023-06-10T09:43:54;101391.00;;;35.39;28.40
49827;BME280;35715;51.570;6.036;2023-06-10T09:46:20;101393.25;;;35.54;27.57
49827;BME280;35715;51.570;6.036;2023-06-10T09:49:04;101396.41;;;35.70;27.23
49827;BME280;35715;51.570;6.036;2023-06-10T09:51:30;101393.25;;;36.17;27.49
49827;BME280;35715;51.570;6.036;2023-06-10T09:53:58;101389.47;;;36.23;26.46
49827;BME280;35715;51.570;6.036;2023-06-10T09:56:34;101392.81;;;36.33;28.17
49827;BME280;35715;51.570;6.036;2023-06-10T09:59:00;101389.53;;;36.51;27.37
49827;BME280;35715;51.570;6.036;2023-06-10T10:01:25;101391.25;;;36.54;26.19
49827;BME280;35715;51.570;6.036;2023-06-10T10:04:23;101393.25;;;36.17;24.39
49827;BME280;35715;51.570;6.036;2023-06-10T10:06:48;101393.88;;;36.27;25.90
49827;BME280;35715;51.570;6.036;2023-06-10T10:09:13;101397.63;;;36.50;25.48
49827;BME280;35715;51.570;6.036;2023-06-10T10:11:39;101397.13;;;36.65;26.32
49827;BME280;35715;51.570;6.036;2023-06-10T10:14:06;101389.38;;;36.84;27.51
49827;BME280;35715;51.570;6.036;2023-06-10T10:19:28;101388.97;;;36.68;24.86
49827;BME280;35715;51.570;6.036;2023-06-10T10:24:53;101385.38;;;36.41;26.46
49827;BME280;35715;51.570;6.036;2023-06-10T10:27:28;101380.78;;;36.45;26.39
49827;BME280;35715;51.570;6.036;2023-06-10T10:29:58;101386.28;;;36.68;25.90
49827;BME280;35715;51.570;6.036;2023-06-10T10:32:31;101385.56;;;36.91;25.70
49827;BME280;35715;51.570;6.036;2023-06-10T10:35:23;101385.03;;;36.80;25.90
49827;BME280;35715;51.570;6.036;2023-06-10T10:37:54;101376.56;;;37.18;25.63
49827;BME280;35715;51.570;6.036;2023-06-10T10:40:23;101380.13;;;36.93;24.74
49827;BME280;35715;51.570;6.036;2023-06-10T10:42:50;101370.25;;;37.19;25.54
49827;BME280;35715;51.570;6.036;2023-06-10T10:45:17;101369.16;;;37.24;24.79
49827;BME280;35715;51.570;6.036;2023-06-10T10:47:45;101365.50;;;37.00;26.04
49827;BME280;35715;51.570;6.036;2023-06-10T10:50:29;101368.09;;;37.03;24.93
49827;BME280;35715;51.570;6.036;2023-06-10T10:56:26;101365.50;;;37.52;24.58
49827;BME280;35715;51.570;6.036;2023-06-10T11:01:49;101359.75;;;37.61;25.98
49827;BME280;35715;51.570;6.036;2023-06-10T11:04:17;101364.41;;;37.56;24.02
49827;BME280;35715;51.570;6.036;2023-06-10T11:06:52;101355.69;;;37.75;23.64
49827;BME280;35715;51.570;6.036;2023-06-10T11:09:26;101356.63;;;37.25;23.82
49827;BME280;35715;51.570;6.036;2023-06-10T11:11:58;101359.50;;;37.19;23.40
49827;BME280;35715;51.570;6.036;2023-06-10T11:14:28;101359.09;;;36.78;24.13
49827;BME280;35715;51.570;6.036;2023-06-10T11:16:56;101350.63;;;37.15;24.02
49827;BME280;35715;51.570;6.036;2023-06-10T11:19:35;101346.16;;;37.41;24.14
49827;BME280;35715;51.570;6.036;2023-06-10T11:22:03;101345.84;;;37.25;22.79
49827;BME280;35715;51.570;6.036;2023-06-10T11:24:33;101340.72;;;37.42;23.59
49827;BME280;35715;51.570;6.036;2023-06-10T11:27:20;101342.19;;;37.51;23.10
49827;BME280;35715;51.570;6.036;2023-06-10T11:32:32;101347.72;;;37.95;23.64
49827;BME280;35715;51.570;6.036;2023-06-10T11:34:58;101342.66;;;38.10;23.38
49827;BME280;35715;51.570;6.036;2023-06-10T11:37:24;101343.66;;;37.84;23.30
49827;BME280;35715;51.570;6.036;2023-06-10T11:39:55;101334.00;;;37.54;22.55
49827;BME280;35715;51.570;6.036;2023-06-10T11:42:24;101336.13;;;37.93;23.17
49827;BME280;35715;51.570;6.036;2023-06-10T11:44:51;101335.69;;;38.04;22.89
49827;BME280;35715;51.570;6.036;2023-06-10T11:47:36;101331.75;;;37.65;23.49
49827;BME280;35715;51.570;6.036;2023-06-10T11:50:01;101331.06;;;37.60;22.91
49827;BME280;35715;51.570;6.036;2023-06-10T11:52:30;101330.25;;;38.06;23.44
49827;BME280;35715;51.570;6.036;2023-06-10T11:55:03;101322.47;;;37.98;22.48
49827;BME280;35715;51.570;6.036;2023-06-10T11:57:29;101325.91;;;37.79;23.09
49827;BME280;35715;51.570;6.036;2023-06-10T11:59:55;101322.63;;;37.70;23.06
49827;BME280;35715;51.570;6.036;2023-06-10T12:02:23;101316.63;;;37.63;22.40
49827;BME280;35715;51.570;6.036;2023-06-10T12:04:48;101322.19;;;37.58;22.54
49827;BME280;35715;51.570;6.036;2023-06-10T12:07:18;101314.72;;;37.65;23.67
49827;BME280;35715;51.570;6.036;2023-06-10T12:09:58;101310.56;;;37.33;22.83
49827;BME280;35715;51.570;6.036;2023-06-10T12:12:24;101312.91;;;36.65;22.97
49827;BME280;35715;51.570;6.036;2023-06-10T12:14:54;101307.91;;;36.81;23.50
49827;BME280;35715;51.570;6.036;2023-06-10T12:19:58;101307.59;;;36.06;24.00
49827;BME280;35715;51.570;6.036;2023-06-10T12:22:27;101299.69;;;35.72;24.45
49827;BME280;35715;51.570;6.036;2023-06-10T12:25:24;101298.47;;;35.84;23.40
49827;BME280;35715;51.570;6.036;2023-06-10T12:27:51;101298.31;;;36.17;24.48
49827;BME280;35715;51.570;6.036;2023-06-10T12:30:22;101284.41;;;36.32;22.84
49827;BME280;35715;51.570;6.036;2023-06-10T12:33:20;101293.94;;;35.54;23.35
49827;BME280;35715;51.570;6.036;2023-06-10T12:35:51;101292.25;;;35.50;23.34
49827;BME280;35715;51.570;6.036;2023-06-10T12:38:24;101289.00;;;35.70;25.82
49827;BME280;35715;51.570;6.036;2023-06-10T12:40:50;101297.59;;;35.83;24.73
49827;BME280;35715;51.570;6.036;2023-06-10T12:43:20;101280.25;;;35.94;24.36
49827;BME280;35715;51.570;6.036;2023-06-10T12:45:46;101282.28;;;35.56;23.84
49827;BME280;35715;51.570;6.036;2023-06-10T12:48:18;101284.44;;;35.11;24.83
49827;BME280;35715;51.570;6.036;2023-06-10T12:50:46;101287.06;;;35.13;24.32
49827;BME280;35715;51.570;6.036;2023-06-10T12:53:13;101285.56;;;35.35;25.65
49827;BME280;35715;51.570;6.036;2023-06-10T12:55:38;101293.25;;;35.48;24.90
49827;BME280;35715;51.570;6.036;2023-06-10T12:58:04;101286.91;;;35.50;24.32
49827;BME280;35715;51.570;6.036;2023-06-10T13:00:29;101294.03;;;35.51;23.70
49827;BME280;35715;51.570;6.036;2023-06-10T13:02:56;101287.59;;;35.26;24.57
49827;BME280;35715;51.570;6.036;2023-06-10T13:05:22;101292.16;;;34.89;24.97
49827;BME280;35715;51.570;6.036;2023-06-10T13:07:47;101293.44;;;33.98;24.75
49827;BME280;35715;51.570;6.036;2023-06-10T13:10:14;101296.09;;;34.01;24.94
49827;BME280;35715;51.570;6.036;2023-06-10T13:12:42;101285.72;;;34.23;24.50
49827;BME280;35715;51.570;6.036;2023-06-10T13:15:08;101280.66;;;34.50;25.40
49827;BME280;35715;51.570;6.036;2023-06-10T13:17:34;101276.38;;;34.78;25.33
49827;BME280;35715;51.570;6.036;2023-06-10T13:20:19;101280.41;;;34.59;24.79
49827;BME280;35715;51.570;6.036;2023-06-10T13:22:49;101290.47;;;34.11;24.69
49827;BME280;35715;51.570;6.036;2023-06-10T13:25:15;101281.66;;;33.64;24.12
49827;BME280;35715;51.570;6.036;2023-06-10T13:27:40;101273.03;;;33.93;25.32
49827;BME280;35715;51.570;6.036;2023-06-10T13:30:08;101277.00;;;34.15;24.65
49827;BME280;35715;51.570;6.036;2023-06-10T13:32:36;101279.63;;;34.18;24.81
49827;BME280;35715;51.570;6.036;2023-06-10T13:35:02;101272.00;;;34.01;24.39
49827;BME280;35715;51.570;6.036;2023-06-10T13:37:28;101269.19;;;34.05;24.87
49827;BME280;35715;51.570;6.036;2023-06-10T13:42:38;101272.97;;;33.54;25.14
49827;BME280;35715;51.570;6.036;2023-06-10T13:45:04;101264.13;;;33.51;25.57